sensor_id;sensor_type;location;lat;lon;timestamp;P1;durP1;ratioP1;P2;durP2;ratioP2
78205;SDS011;67480;48.920;12.880;2023-12-14T00:01:25;7.68;;;5.13;;
78205;SDS011;67480;48.920;12.880;2023-12-14T00:03:51;6.82;;;5.45;;
78205;SDS011;67480;48.920;12.880;2023-12-14T00:06:16;6.60;;;4.95;;
78205;SDS011;67480;48.920;12.880;2023-12-14T00:08:42;7.72;;;5.38;;
78205;SDS011;67480;48.920;12.880;2023-12-14T00:11:08;8.82;;;5.70;;
78205;SDS011;67480;48.920;12.880;2023-12-14T00:13:34;6.60;;;5.53;;
78205;SDS011;67480;48.920;12.880;2023-12-14T00:16:00;7.75;;;5.32;;
78205;SDS011;67480;48.920;12.880;2023-12-14T00:18:26;6.60;;;4.97;;
78205;SDS011;67480;48.920;12.880;2023-12-14T00:20:51;6.95;;;4.85;;
78205;SDS011;67480;48.920;12.880;2023-12-14T00:23:17;6.00;;;5.18;;
78205;SDS011;67480;48.920;12.880;2023-12-14T00:25:43;8.60;;;5.60;;
78205;SDS011;67480;48.920;12.880;2023-12-14T00:28:08;6.72;;;5.15;;
78205;SDS011;67480;48.920;12.880;2023-12-14T00:30:34;7.57;;;5.68;;
78205;SDS011;67480;48.920;12.880;2023-12-14T00:32:59;7.57;;;5.53;;
78205;SDS011;67480;48.920;12.880;2023-12-14T00:35:27;6.93;;;5.20;;
78205;SDS011;67480;48.920;12.880;2023-12-14T00:37:53;6.20;;;5.20;;
78205;SDS011;67480;48.920;12.880;2023-12-14T00:40:18;7.82;;;5.07;;
78205;SDS011;67480;48.920;12.880;2023-12-14T00:42:43;6.00;;;5.15;;
78205;SDS011;67480;48.920;12.880;2023-12-14T00:45:09;6.35;;;5.32;;
78205;SDS011;67480;48.920;12.880;2023-12-14T00:47:34;7.05;;;5.35;;
78205;SDS011;67480;48.920;12.880;2023-12-14T00:50:00;6.97;;;5.35;;
78205;SDS011;67480;48.920;12.880;2023-12-14T00:52:25;5.88;;;5.28;;
78205;SDS011;67480;48.920;12.880;2023-12-14T00:54:50;9.23;;;6.65;;
78205;SDS011;67480;48.920;12.880;2023-12-14T00:57:16;6.95;;;6.00;;
78205;SDS011;67480;48.920;12.880;2023-12-14T00:59:41;6.13;;;5.40;;
78205;SDS011;67480;48.920;12.880;2023-12-14T01:02:07;6.93;;;5.60;;
78205;SDS011;67480;48.920;12.880;2023-12-14T01:04:32;6.65;;;5.78;;
78205;SDS011;67480;48.920;12.880;2023-12-14T01:06:57;7.07;;;6.00;;
78205;SDS011;67480;48.920;12.880;2023-12-14T01:09:23;7.00;;;5.72;;
78205;SDS011;67480;48.920;12.880;2023-12-14T01:11:48;7.13;;;6.07;;
78205;SDS011;67480;48.920;12.880;2023-12-14T01:14:17;9.70;;;6.20;;
78205;SDS011;67480;48.920;12.880;2023-12-14T01:16:42;7.65;;;6.13;;
78205;SDS011;67480;48.920;12.880;2023-12-14T01:19:07;6.97;;;5.85;;
78205;SDS011;67480;48.920;12.880;2023-12-14T01:21:33;6.47;;;5.75;;
78205;SDS011;67480;48.920;12.880;2023-12-14T01:23:58;6.28;;;5.68;;
78205;SDS011;67480;48.920;12.880;2023-12-14T01:26:25;6.78;;;5.50;;
78205;SDS011;67480;48.920;12.880;2023-12-14T01:28:51;8.80;;;6.70;;
78205;SDS011;67480;48.920;12.880;2023-12-14T01:31:16;8.43;;;6.30;;
78205;SDS011;67480;48.920;12.880;2023-12-14T01:33:42;7.85;;;6.57;;
78205;SDS011;67480;48.920;12.880;2023-12-14T01:36:07;7.70;;;6.45;;
78205;SDS011;67480;48.920;12.880;2023-12-14T01:38:33;8.95;;;6.85;;
78205;SDS011;67480;48.920;12.880;2023-12-14T01:40:58;10.07;;;7.57;;
78205;SDS011;67480;48.920;12.880;2023-12-14T01:43:24;8.80;;;6.75;;
78205;SDS011;67480;48.920;12.880;2023-12-14T01:45:50;6.15;;;5.55;;
78205;SDS011;67480;48.920;12.880;2023-12-14T01:48:15;7.05;;;5.75;;
78205;SDS011;67480;48.920;12.880;2023-12-14T01:50:40;7.45;;;6.18;;
78205;SDS011;67480;48.920;12.880;2023-12-14T01:53:06;6.97;;;5.50;;
78205;SDS011;67480;48.920;12.880;2023-12-14T01:55:31;5.72;;;5.13;;
78205;SDS011;67480;48.920;12.880;2023-12-14T01:57:56;6.03;;;4.85;;
78205;SDS011;67480;48.920;12.880;2023-12-14T02:00:57;6.82;;;5.57;;
78205;SDS011;67480;48.920;12.880;2023-12-14T02:03:17;8.07;;;6.18;;
78205;SDS011;67480;48.920;12.880;2023-12-14T02:05:42;7.18;;;5.78;;
78205;SDS011;67480;48.920;12.880;2023-12-14T02:08:08;8.25;;;6.18;;
78205;SDS011;67480;48.920;12.880;2023-12-14T02:10:33;6.80;;;6.05;;
78205;SDS011;67480;48.920;12.880;2023-12-14T02:13:00;7.40;;;5.85;;
78205;SDS011;67480;48.920;12.880;2023-12-14T02:15:27;6.32;;;5.70;;
78205;SDS011;67480;48.920;12.880;2023-12-14T02:17:52;7.03;;;5.75;;
78205;SDS011;67480;48.920;12.880;2023-12-14T02:20:17;7.95;;;6.15;;
78205;SDS011;67480;48.920;12.880;2023-12-14T02:22:55;8.50;;;6.78;;
78205;SDS011;67480;48.920;12.880;2023-12-14T02:25:21;10.20;;;6.65;;
78205;SDS011;67480;48.920;12.880;2023-12-14T02:27:47;8.48;;;6.22;;
78205;SDS011;67480;48.920;12.880;2023-12-14T02:30:14;8.45;;;6.28;;
78205;SDS011;67480;48.920;12.880;2023-12-14T02:32:40;9.18;;;6.53;;
78205;SDS011;67480;48.920;12.880;2023-12-14T02:35:05;8.55;;;6.32;;
78205;SDS011;67480;48.920;12.880;2023-12-14T02:37:33;10.15;;;6.00;;
78205;SDS011;67480;48.920;12.880;2023-12-14T02:39:59;8.25;;;6.72;;
78205;SDS011;67480;48.920;12.880;2023-12-14T02:42:25;9.13;;;6.65;;
78205;SDS011;67480;48.920;12.880;2023-12-14T02:44:51;7.60;;;6.22;;
78205;SDS011;67480;48.920;12.880;2023-12-14T02:47:18;7.68;;;5.72;;
78205;SDS011;67480;48.920;12.880;2023-12-14T02:49:43;6.45;;;5.13;;
78205;SDS011;67480;48.920;12.880;2023-12-14T02:52:09;6.65;;;5.45;;
78205;SDS011;67480;48.920;12.880;2023-12-14T02:54:34;7.47;;;6.30;;
78205;SDS011;67480;48.920;12.880;2023-12-14T02:57:01;7.97;;;6.88;;
78205;SDS011;67480;48.920;12.880;2023-12-14T02:59:26;7.15;;;6.35;;
78205;SDS011;67480;48.920;12.880;2023-12-14T03:01:52;10.60;;;7.45;;
78205;SDS011;67480;48.920;12.880;2023-12-14T03:04:17;8.00;;;6.45;;
78205;SDS011;67480;48.920;12.880;2023-12-14T03:06:42;7.03;;;5.90;;
78205;SDS011;67480;48.920;12.880;2023-12-14T03:09:08;6.07;;;5.32;;
78205;SDS011;67480;48.920;12.880;2023-12-14T03:11:33;5.72;;;5.07;;
78205;SDS011;67480;48.920;12.880;2023-12-14T03:13:58;5.38;;;4.50;;
78205;SDS011;67480;48.920;12.880;2023-12-14T03:16:24;5.65;;;4.93;;
78205;SDS011;67480;48.920;12.880;2023-12-14T03:18:49;6.78;;;5.78;;
78205;SDS011;67480;48.920;12.880;2023-12-14T03:21:18;9.35;;;7.63;;
78205;SDS011;67480;48.920;12.880;2023-12-14T03:23:43;7.00;;;5.60;;
78205;SDS011;67480;48.920;12.880;2023-12-14T03:26:09;6.13;;;5.53;;
78205;SDS011;67480;48.920;12.880;2023-12-14T03:28:34;5.60;;;4.95;;
78205;SDS011;67480;48.920;12.880;2023-12-14T03:31:00;5.95;;;5.30;;
78205;SDS011;67480;48.920;12.880;2023-12-14T03:33:25;6.65;;;5.03;;
78205;SDS011;67480;48.920;12.880;2023-12-14T03:35:50;5.22;;;4.72;;
78205;SDS011;67480;48.920;12.880;2023-12-14T03:38:16;5.10;;;4.18;;
78205;SDS011;67480;48.920;12.880;2023-12-14T03:40:41;5.47;;;4.43;;
78205;SDS011;67480;48.920;12.880;2023-12-14T03:43:06;5.05;;;3.88;;
78205;SDS011;67480;48.920;12.880;2023-12-14T03:45:32;5.03;;;4.18;;
78205;SDS011;67480;48.920;12.880;2023-12-14T03:47:57;7.45;;;4.60;;
78205;SDS011;67480;48.920;12.880;2023-12-14T03:50:23;5.30;;;4.22;;
78205;SDS011;67480;48.920;12.880;2023-12-14T03:52:48;5.88;;;4.72;;
78205;SDS011;67480;48.920;12.880;2023-12-14T03:55:14;5.63;;;5.00;;
78205;SDS011;67480;48.920;12.880;2023-12-14T03:57:40;6.53;;;4.93;;
78205;SDS011;67480;48.920;12.880;2023-12-14T04:00:07;6.20;;;5.03;;
78205;SDS011;67480;48.920;12.880;2023-12-14T04:02:38;4.75;;;4.13;;
78205;SDS011;67480;48.920;12.880;2023-12-14T04:05:05;5.88;;;4.60;;
78205;SDS011;67480;48.920;12.880;2023-12-14T04:07:31;5.07;;;4.43;;
78205;SDS011;67480;48.920;12.880;2023-12-14T04:09:56;5.93;;;4.45;;
78205;SDS011;67480;48.920;12.880;2023-12-14T04:12:22;4.70;;;4.30;;
78205;SDS011;67480;48.920;12.880;2023-12-14T04:14:50;5.63;;;4.50;;
78205;SDS011;67480;48.920;12.880;2023-12-14T04:17:16;5.05;;;3.90;;
78205;SDS011;67480;48.920;12.880;2023-12-14T04:19:41;4.78;;;3.50;;
78205;SDS011;67480;48.920;12.880;2023-12-14T04:22:07;3.38;;;3.08;;
78205;SDS011;67480;48.920;12.880;2023-12-14T04:24:32;3.78;;;3.38;;
78205;SDS011;67480;48.920;12.880;2023-12-14T04:26:58;4.50;;;3.35;;
78205;SDS011;67480;48.920;12.880;2023-12-14T04:29:23;4.43;;;3.40;;
78205;SDS011;67480;48.920;12.880;2023-12-14T04:31:49;4.50;;;3.83;;
78205;SDS011;67480;48.920;12.880;2023-12-14T04:34:14;4.40;;;3.63;;
78205;SDS011;67480;48.920;12.880;2023-12-14T04:36:44;5.43;;;4.13;;
78205;SDS011;67480;48.920;12.880;2023-12-14T04:39:10;3.75;;;3.30;;
78205;SDS011;67480;48.920;12.880;2023-12-14T04:41:36;4.93;;;3.63;;
78205;SDS011;67480;48.920;12.880;2023-12-14T04:44:02;5.32;;;3.60;;
78205;SDS011;67480;48.920;12.880;2023-12-14T04:46:27;5.75;;;2.78;;
78205;SDS011;67480;48.920;12.880;2023-12-14T04:48:53;3.17;;;2.67;;
78205;SDS011;67480;48.920;12.880;2023-12-14T04:51:18;4.22;;;2.97;;
78205;SDS011;67480;48.920;12.880;2023-12-14T04:53:44;2.90;;;2.45;;
78205;SDS011;67480;48.920;12.880;2023-12-14T04:56:09;2.50;;;2.30;;
78205;SDS011;67480;48.920;12.880;2023-12-14T04:58:36;3.30;;;2.80;;
78205;SDS011;67480;48.920;12.880;2023-12-14T05:01:02;4.55;;;3.10;;
78205;SDS011;67480;48.920;12.880;2023-12-14T05:03:27;3.97;;;3.08;;
78205;SDS011;67480;48.920;12.880;2023-12-14T05:05:53;3.35;;;2.78;;
78205;SDS011;67480;48.920;12.880;2023-12-14T05:08:18;3.97;;;2.53;;
78205;SDS011;67480;48.920;12.880;2023-12-14T05:10:43;2.90;;;2.53;;
78205;SDS011;67480;48.920;12.880;2023-12-14T05:13:09;3.10;;;2.80;;
78205;SDS011;67480;48.920;12.880;2023-12-14T05:15:35;3.03;;;2.70;;
78205;SDS011;67480;48.920;12.880;2023-12-14T05:18:00;2.72;;;2.10;;
78205;SDS011;67480;48.920;12.880;2023-12-14T05:20:26;2.88;;;2.00;;
78205;SDS011;67480;48.920;12.880;2023-12-14T05:22:51;3.20;;;2.35;;
78205;SDS011;67480;48.920;12.880;2023-12-14T05:25:17;1.98;;;1.85;;
78205;SDS011;67480;48.920;12.880;2023-12-14T05:27:42;2.03;;;1.83;;
78205;SDS011;67480;48.920;12.880;2023-12-14T05:30:08;1.65;;;1.55;;
78205;SDS011;67480;48.920;12.880;2023-12-14T05:32:33;2.42;;;2.22;;
78205;SDS011;67480;48.920;12.880;2023-12-14T05:34:59;2.22;;;2.00;;
78205;SDS011;67480;48.920;12.880;2023-12-14T05:37:25;2.38;;;2.03;;
78205;SDS011;67480;48.920;12.880;2023-12-14T05:39:50;2.88;;;2.20;;
78205;SDS011;67480;48.920;12.880;2023-12-14T05:42:17;2.85;;;2.20;;
78205;SDS011;67480;48.920;12.880;2023-12-14T05:44:43;1.60;;;1.50;;
78205;SDS011;67480;48.920;12.880;2023-12-14T05:47:10;2.35;;;2.25;;
78205;SDS011;67480;48.920;12.880;2023-12-14T05:49:36;3.15;;;1.50;;
78205;SDS011;67480;48.920;12.880;2023-12-14T05:52:02;2.40;;;1.38;;
78205;SDS011;67480;48.920;12.880;2023-12-14T05:54:28;1.45;;;1.35;;
78205;SDS011;67480;48.920;12.880;2023-12-14T05:56:53;1.50;;;1.40;;
78205;SDS011;67480;48.920;12.880;2023-12-14T05:59:18;2.17;;;1.88;;
78205;SDS011;67480;48.920;12.880;2023-12-14T06:01:44;2.13;;;1.88;;
78205;SDS011;67480;48.920;12.880;2023-12-14T06:04:09;3.78;;;2.10;;
78205;SDS011;67480;48.920;12.880;2023-12-14T06:06:34;2.15;;;1.80;;
78205;SDS011;67480;48.920;12.880;2023-12-14T06:09:00;2.17;;;1.92;;
78205;SDS011;67480;48.920;12.880;2023-12-14T06:11:25;2.83;;;2.05;;
78205;SDS011;67480;48.920;12.880;2023-12-14T06:13:50;3.95;;;2.10;;
78205;SDS011;67480;48.920;12.880;2023-12-14T06:16:16;2.92;;;2.67;;
78205;SDS011;67480;48.920;12.880;2023-12-14T06:18:41;3.10;;;2.08;;
78205;SDS011;67480;48.920;12.880;2023-12-14T06:21:08;2.75;;;2.38;;
78205;SDS011;67480;48.920;12.880;2023-12-14T06:23:34;2.65;;;1.95;;
78205;SDS011;67480;48.920;12.880;2023-12-14T06:26:02;3.28;;;2.40;;
78205;SDS011;67480;48.920;12.880;2023-12-14T06:28:29;2.45;;;2.00;;
78205;SDS011;67480;48.920;12.880;2023-12-14T06:30:55;1.67;;;1.58;;
78205;SDS011;67480;48.920;12.880;2023-12-14T06:33:21;3.05;;;1.60;;
78205;SDS011;67480;48.920;12.880;2023-12-14T06:35:47;1.80;;;1.30;;
78205;SDS011;67480;48.920;12.880;2023-12-14T06:38:12;3.03;;;2.72;;
78205;SDS011;67480;48.920;12.880;2023-12-14T06:40:38;5.20;;;3.00;;
78205;SDS011;67480;48.920;12.880;2023-12-14T06:43:04;3.08;;;2.63;;
78205;SDS011;67480;48.920;12.880;2023-12-14T06:45:30;1.92;;;1.83;;
78205;SDS011;67480;48.920;12.880;2023-12-14T06:47:55;4.00;;;2.55;;
78205;SDS011;67480;48.920;12.880;2023-12-14T06:50:21;2.40;;;2.20;;
78205;SDS011;67480;48.920;12.880;2023-12-14T06:52:46;2.40;;;2.20;;
78205;SDS011;67480;48.920;12.880;2023-12-14T06:55:12;6.82;;;5.32;;
78205;SDS011;67480;48.920;12.880;2023-12-14T06:57:39;7.25;;;6.18;;
78205;SDS011;67480;48.920;12.880;2023-12-14T07:00:07;5.88;;;3.67;;
78205;SDS011;67480;48.920;12.880;2023-12-14T07:02:33;12.57;;;9.45;;
78205;SDS011;67480;48.920;12.880;2023-12-14T07:04:58;5.45;;;4.85;;
78205;SDS011;67480;48.920;12.880;2023-12-14T07:07:24;6.95;;;4.53;;
78205;SDS011;67480;48.920;12.880;2023-12-14T07:09:49;6.65;;;6.05;;
78205;SDS011;67480;48.920;12.880;2023-12-14T07:12:15;9.43;;;8.43;;
78205;SDS011;67480;48.920;12.880;2023-12-14T07:14:40;4.35;;;3.92;;
78205;SDS011;67480;48.920;12.880;2023-12-14T07:17:05;4.95;;;3.38;;
78205;SDS011;67480;48.920;12.880;2023-12-14T07:19:31;4.40;;;2.72;;
78205;SDS011;67480;48.920;12.880;2023-12-14T07:21:57;2.75;;;2.22;;
78205;SDS011;67480;48.920;12.880;2023-12-14T07:24:22;2.50;;;2.30;;
78205;SDS011;67480;48.920;12.880;2023-12-14T07:26:48;4.68;;;3.00;;
78205;SDS011;67480;48.920;12.880;2023-12-14T07:29:14;3.15;;;2.85;;
78205;SDS011;67480;48.920;12.880;2023-12-14T07:31:40;4.50;;;3.10;;
78205;SDS011;67480;48.920;12.880;2023-12-14T07:34:05;3.92;;;3.40;;
78205;SDS011;67480;48.920;12.880;2023-12-14T07:36:31;4.60;;;3.35;;
78205;SDS011;67480;48.920;12.880;2023-12-14T07:38:56;4.18;;;3.70;;
78205;SDS011;67480;48.920;12.880;2023-12-14T07:41:22;5.15;;;3.67;;
78205;SDS011;67480;48.920;12.880;2023-12-14T07:43:54;6.40;;;4.78;;
78205;SDS011;67480;48.920;12.880;2023-12-14T07:46:20;5.97;;;4.35;;
78205;SDS011;67480;48.920;12.880;2023-12-14T07:48:46;5.03;;;4.30;;
78205;SDS011;67480;48.920;12.880;2023-12-14T07:51:16;7.95;;;5.65;;
78205;SDS011;67480;48.920;12.880;2023-12-14T07:53:42;5.57;;;5.03;;
78205;SDS011;67480;48.920;12.880;2023-12-14T07:56:08;6.38;;;5.15;;
78205;SDS011;67480;48.920;12.880;2023-12-14T07:58:34;5.53;;;5.03;;
78205;SDS011;67480;48.920;12.880;2023-12-14T08:00:59;6.05;;;5.35;;
78205;SDS011;67480;48.920;12.880;2023-12-14T08:03:25;6.85;;;5.18;;
78205;SDS011;67480;48.920;12.880;2023-12-14T08:05:50;5.90;;;5.30;;
78205;SDS011;67480;48.920;12.880;2023-12-14T08:08:16;6.95;;;5.60;;
78205;SDS011;67480;48.920;12.880;2023-12-14T08:10:41;8.50;;;6.28;;
78205;SDS011;67480;48.920;12.880;2023-12-14T08:13:07;9.38;;;6.38;;
78205;SDS011;67480;48.920;12.880;2023-12-14T08:15:33;8.05;;;6.32;;
78205;SDS011;67480;48.920;12.880;2023-12-14T08:17:59;9.05;;;7.47;;
78205;SDS011;67480;48.920;12.880;2023-12-14T08:20:24;9.57;;;8.35;;
78205;SDS011;67480;48.920;12.880;2023-12-14T08:22:50;8.63;;;7.28;;
78205;SDS011;67480;48.920;12.880;2023-12-14T08:25:15;8.70;;;5.97;;
78205;SDS011;67480;48.920;12.880;2023-12-14T08:27:41;12.35;;;8.23;;
78205;SDS011;67480;48.920;12.880;2023-12-14T08:30:10;9.70;;;7.93;;
78205;SDS011;67480;48.920;12.880;2023-12-14T08:32:36;12.18;;;8.85;;
78205;SDS011;67480;48.920;12.880;2023-12-14T08:35:02;13.25;;;8.70;;
78205;SDS011;67480;48.920;12.880;2023-12-14T08:37:27;11.57;;;8.18;;
78205;SDS011;67480;48.920;12.880;2023-12-14T08:39:53;12.48;;;8.38;;
78205;SDS011;67480;48.920;12.880;2023-12-14T08:42:18;11.38;;;8.38;;
78205;SDS011;67480;48.920;12.880;2023-12-14T08:44:44;9.95;;;8.27;;
78205;SDS011;67480;48.920;12.880;2023-12-14T08:47:09;11.85;;;9.07;;
78205;SDS011;67480;48.920;12.880;2023-12-14T08:49:35;11.18;;;8.35;;
78205;SDS011;67480;48.920;12.880;2023-12-14T08:52:00;11.70;;;8.65;;
78205;SDS011;67480;48.920;12.880;2023-12-14T08:54:26;13.20;;;9.40;;
78205;SDS011;67480;48.920;12.880;2023-12-14T08:56:52;12.32;;;9.57;;
78205;SDS011;67480;48.920;12.880;2023-12-14T08:59:17;13.35;;;9.32;;
78205;SDS011;67480;48.920;12.880;2023-12-14T09:01:45;12.40;;;9.25;;
78205;SDS011;67480;48.920;12.880;2023-12-14T09:04:10;12.80;;;9.77;;
78205;SDS011;67480;48.920;12.880;2023-12-14T09:06:36;13.15;;;9.23;;
78205;SDS011;67480;48.920;12.880;2023-12-14T09:09:01;12.50;;;8.85;;
78205;SDS011;67480;48.920;12.880;2023-12-14T09:11:27;13.95;;;9.55;;
78205;SDS011;67480;48.920;12.880;2023-12-14T09:13:53;11.98;;;8.95;;
78205;SDS011;67480;48.920;12.880;2023-12-14T09:16:18;13.20;;;9.05;;
78205;SDS011;67480;48.920;12.880;2023-12-14T09:18:44;11.65;;;8.93;;
78205;SDS011;67480;48.920;12.880;2023-12-14T09:21:09;14.15;;;9.52;;
78205;SDS011;67480;48.920;12.880;2023-12-14T09:23:34;14.63;;;9.35;;
78205;SDS011;67480;48.920;12.880;2023-12-14T09:26:00;13.75;;;10.15;;
78205;SDS011;67480;48.920;12.880;2023-12-14T09:28:25;15.55;;;11.27;;
78205;SDS011;67480;48.920;12.880;2023-12-14T09:30:51;14.45;;;10.32;;
78205;SDS011;67480;48.920;12.880;2023-12-14T09:33:17;18.23;;;13.02;;
78205;SDS011;67480;48.920;12.880;2023-12-14T09:35:43;15.60;;;10.55;;
78205;SDS011;67480;48.920;12.880;2023-12-14T09:38:08;15.00;;;10.77;;
78205;SDS011;67480;48.920;12.880;2023-12-14T09:40:34;14.45;;;10.68;;
78205;SDS011;67480;48.920;12.880;2023-12-14T09:43:00;13.07;;;10.52;;
78205;SDS011;67480;48.920;12.880;2023-12-14T09:45:29;14.27;;;9.85;;
78205;SDS011;67480;48.920;12.880;2023-12-14T09:47:58;14.82;;;9.48;;
78205;SDS011;67480;48.920;12.880;2023-12-14T09:50:25;11.43;;;8.90;;
78205;SDS011;67480;48.920;12.880;2023-12-14T09:52:50;15.15;;;9.68;;
78205;SDS011;67480;48.920;12.880;2023-12-14T09:55:16;12.15;;;9.60;;
78205;SDS011;67480;48.920;12.880;2023-12-14T09:57:41;12.13;;;9.18;;
78205;SDS011;67480;48.920;12.880;2023-12-14T10:00:07;11.23;;;8.63;;
78205;SDS011;67480;48.920;12.880;2023-12-14T10:02:39;11.55;;;9.02;;
78205;SDS011;67480;48.920;12.880;2023-12-14T10:05:05;11.35;;;8.02;;
78205;SDS011;67480;48.920;12.880;2023-12-14T10:07:38;11.63;;;8.45;;
78205;SDS011;67480;48.920;12.880;2023-12-14T10:10:12;10.02;;;8.18;;
78205;SDS011;67480;48.920;12.880;2023-12-14T10:13:00;11.30;;;8.45;;
78205;SDS011;67480;48.920;12.880;2023-12-14T10:15:25;18.00;;;13.20;;
78205;SDS011;67480;48.920;12.880;2023-12-14T10:17:52;14.75;;;10.57;;
78205;SDS011;67480;48.920;12.880;2023-12-14T10:20:22;15.13;;;10.48;;
78205;SDS011;67480;48.920;12.880;2023-12-14T10:22:52;14.60;;;11.23;;
78205;SDS011;67480;48.920;12.880;2023-12-14T10:25:18;14.05;;;9.98;;
78205;SDS011;67480;48.920;12.880;2023-12-14T10:27:47;11.02;;;9.00;;
78205;SDS011;67480;48.920;12.880;2023-12-14T10:30:13;12.95;;;9.05;;
78205;SDS011;67480;48.920;12.880;2023-12-14T10:32:40;11.27;;;8.95;;
78205;SDS011;67480;48.920;12.880;2023-12-14T10:35:06;11.50;;;8.90;;
78205;SDS011;67480;48.920;12.880;2023-12-14T10:37:32;11.57;;;9.38;;
78205;SDS011;67480;48.920;12.880;2023-12-14T10:40:02;11.07;;;8.77;;
78205;SDS011;67480;48.920;12.880;2023-12-14T10:42:30;12.13;;;9.27;;
78205;SDS011;67480;48.920;12.880;2023-12-14T10:44:57;12.13;;;9.23;;
78205;SDS011;67480;48.920;12.880;2023-12-14T10:47:25;12.40;;;9.15;;
78205;SDS011;67480;48.920;12.880;2023-12-14T10:49:52;11.80;;;9.23;;
78205;SDS011;67480;48.920;12.880;2023-12-14T10:52:19;12.18;;;8.73;;
78205;SDS011;67480;48.920;12.880;2023-12-14T10:54:47;12.82;;;9.27;;
78205;SDS011;67480;48.920;12.880;2023-12-14T10:57:17;11.13;;;8.50;;
78205;SDS011;67480;48.920;12.880;2023-12-14T10:59:48;12.65;;;9.10;;
78205;SDS011;67480;48.920;12.880;2023-12-14T11:02:14;12.35;;;9.32;;
78205;SDS011;67480;48.920;12.880;2023-12-14T11:07:47;12.00;;;9.43;;
78205;SDS011;67480;48.920;12.880;2023-12-14T11:10:37;12.75;;;9.50;;
78205;SDS011;67480;48.920;12.880;2023-12-14T11:13:17;12.98;;;9.57;;
78205;SDS011;67480;48.920;12.880;2023-12-14T11:15:49;12.50;;;10.80;;
78205;SDS011;67480;48.920;12.880;2023-12-14T11:23:18;14.52;;;10.95;;
78205;SDS011;67480;48.920;12.880;2023-12-14T11:25:51;15.30;;;10.90;;
78205;SDS011;67480;48.920;12.880;2023-12-14T11:28:17;13.13;;;10.80;;
78205;SDS011;67480;48.920;12.880;2023-12-14T11:30:44;12.00;;;10.07;;
78205;SDS011;67480;48.920;12.880;2023-12-14T11:33:13;16.50;;;9.90;;
78205;SDS011;67480;48.920;12.880;2023-12-14T11:35:40;14.25;;;9.05;;
78205;SDS011;67480;48.920;12.880;2023-12-14T11:38:06;13.05;;;10.25;;
78205;SDS011;67480;48.920;12.880;2023-12-14T11:40:47;12.52;;;9.80;;
78205;SDS011;67480;48.920;12.880;2023-12-14T11:43:14;12.10;;;9.32;;
78205;SDS011;67480;48.920;12.880;2023-12-14T11:45:40;15.23;;;10.57;;
78205;SDS011;67480;48.920;12.880;2023-12-14T11:48:07;11.98;;;9.60;;
78205;SDS011;67480;48.920;12.880;2023-12-14T11:50:35;14.43;;;9.65;;
78205;SDS011;67480;48.920;12.880;2023-12-14T11:53:02;11.30;;;9.73;;
78205;SDS011;67480;48.920;12.880;2023-12-14T11:55:28;11.63;;;9.05;;
78205;SDS011;67480;48.920;12.880;2023-12-14T11:57:55;12.00;;;8.88;;
78205;SDS011;67480;48.920;12.880;2023-12-14T12:00:28;11.90;;;8.73;;
78205;SDS011;67480;48.920;12.880;2023-12-14T12:05:43;11.32;;;9.27;;
78205;SDS011;67480;48.920;12.880;2023-12-14T12:08:10;10.80;;;8.68;;
78205;SDS011;67480;48.920;12.880;2023-12-14T12:10:37;10.35;;;7.68;;
78205;SDS011;67480;48.920;12.880;2023-12-14T12:13:08;10.48;;;8.05;;
78205;SDS011;67480;48.920;12.880;2023-12-14T12:15:37;9.77;;;8.15;;
78205;SDS011;67480;48.920;12.880;2023-12-14T12:18:06;10.85;;;8.45;;
78205;SDS011;67480;48.920;12.880;2023-12-14T12:20:33;9.57;;;8.13;;
78205;SDS011;67480;48.920;12.880;2023-12-14T12:22:59;9.80;;;7.70;;
78205;SDS011;67480;48.920;12.880;2023-12-14T12:25:25;10.57;;;7.22;;
78205;SDS011;67480;48.920;12.880;2023-12-14T12:27:53;9.82;;;7.05;;
78205;SDS011;67480;48.920;12.880;2023-12-14T12:30:22;9.02;;;7.05;;
78205;SDS011;67480;48.920;12.880;2023-12-14T12:32:48;8.80;;;7.43;;
78205;SDS011;67480;48.920;12.880;2023-12-14T12:35:16;7.93;;;6.50;;
78205;SDS011;67480;48.920;12.880;2023-12-14T12:37:41;10.23;;;6.50;;
78205;SDS011;67480;48.920;12.880;2023-12-14T12:40:07;7.82;;;6.20;;
78205;SDS011;67480;48.920;12.880;2023-12-14T12:42:33;9.73;;;6.50;;
78205;SDS011;67480;48.920;12.880;2023-12-14T12:44:59;10.18;;;6.70;;
78205;SDS011;67480;48.920;12.880;2023-12-14T12:47:24;8.07;;;6.60;;
78205;SDS011;67480;48.920;12.880;2023-12-14T12:49:49;9.13;;;7.15;;
78205;SDS011;67480;48.920;12.880;2023-12-14T12:52:15;7.35;;;5.78;;
78205;SDS011;67480;48.920;12.880;2023-12-14T12:54:40;8.70;;;6.45;;
78205;SDS011;67480;48.920;12.880;2023-12-14T12:57:05;9.75;;;6.85;;
78205;SDS011;67480;48.920;12.880;2023-12-14T12:59:31;8.75;;;6.78;;
78205;SDS011;67480;48.920;12.880;2023-12-14T13:01:56;7.57;;;6.20;;
78205;SDS011;67480;48.920;12.880;2023-12-14T13:04:22;7.18;;;6.05;;
78205;SDS011;67480;48.920;12.880;2023-12-14T13:06:48;9.07;;;6.20;;
78205;SDS011;67480;48.920;12.880;2023-12-14T13:09:14;8.48;;;6.68;;
78205;SDS011;67480;48.920;12.880;2023-12-14T13:11:41;7.35;;;5.72;;
78205;SDS011;67480;48.920;12.880;2023-12-14T13:14:07;6.55;;;5.85;;
78205;SDS011;67480;48.920;12.880;2023-12-14T13:16:36;7.65;;;5.90;;
78205;SDS011;67480;48.920;12.880;2023-12-14T13:19:02;7.57;;;6.20;;
78205;SDS011;67480;48.920;12.880;2023-12-14T13:21:32;7.30;;;5.97;;
78205;SDS011;67480;48.920;12.880;2023-12-14T13:24:01;7.93;;;5.82;;
78205;SDS011;67480;48.920;12.880;2023-12-14T13:26:29;9.43;;;5.90;;
78205;SDS011;67480;48.920;12.880;2023-12-14T13:28:55;7.30;;;6.05;;
78205;SDS011;67480;48.920;12.880;2023-12-14T13:31:20;8.20;;;6.05;;
78205;SDS011;67480;48.920;12.880;2023-12-14T13:33:46;6.45;;;5.85;;
78205;SDS011;67480;48.920;12.880;2023-12-14T13:36:13;8.40;;;6.20;;
78205;SDS011;67480;48.920;12.880;2023-12-14T13:38:39;9.65;;;5.82;;
78205;SDS011;67480;48.920;12.880;2023-12-14T13:41:06;6.90;;;5.28;;
78205;SDS011;67480;48.920;12.880;2023-12-14T13:43:32;8.07;;;6.35;;
78205;SDS011;67480;48.920;12.880;2023-12-14T13:45:57;7.30;;;5.47;;
78205;SDS011;67480;48.920;12.880;2023-12-14T13:48:26;8.85;;;6.10;;
78205;SDS011;67480;48.920;12.880;2023-12-14T13:50:55;14.32;;;7.75;;
78205;SDS011;67480;48.920;12.880;2023-12-14T13:53:21;8.20;;;6.32;;
78205;SDS011;67480;48.920;12.880;2023-12-14T13:55:47;8.07;;;7.28;;
78205;SDS011;67480;48.920;12.880;2023-12-14T13:58:14;7.57;;;6.72;;
78205;SDS011;67480;48.920;12.880;2023-12-14T14:00:39;8.18;;;6.15;;
78205;SDS011;67480;48.920;12.880;2023-12-14T14:03:05;8.38;;;6.15;;
78205;SDS011;67480;48.920;12.880;2023-12-14T14:05:31;8.23;;;5.80;;
78205;SDS011;67480;48.920;12.880;2023-12-14T14:07:57;8.50;;;6.28;;
78205;SDS011;67480;48.920;12.880;2023-12-14T14:10:22;12.43;;;8.25;;
78205;SDS011;67480;48.920;12.880;2023-12-14T14:12:48;14.48;;;8.73;;
78205;SDS011;67480;48.920;12.880;2023-12-14T14:15:14;10.30;;;7.82;;
78205;SDS011;67480;48.920;12.880;2023-12-14T14:17:39;9.02;;;6.80;;
78205;SDS011;67480;48.920;12.880;2023-12-14T14:20:05;10.13;;;7.10;;
78205;SDS011;67480;48.920;12.880;2023-12-14T14:22:32;8.45;;;6.78;;
78205;SDS011;67480;48.920;12.880;2023-12-14T14:24:58;7.35;;;6.60;;
78205;SDS011;67480;48.920;12.880;2023-12-14T14:27:23;7.90;;;6.20;;
78205;SDS011;67480;48.920;12.880;2023-12-14T14:29:49;7.32;;;6.47;;
78205;SDS011;67480;48.920;12.880;2023-12-14T14:32:15;6.95;;;6.25;;
78205;SDS011;67480;48.920;12.880;2023-12-14T14:34:41;8.63;;;6.88;;
78205;SDS011;67480;48.920;12.880;2023-12-14T14:37:07;9.38;;;7.07;;